sensor_id;sensor_type;location;lat;lon;timestamp;P1;durP1;ratioP1;P2;durP2;ratioP2
35188;SDS011;21762;54.480;18.556;2023-08-06T00:00:31;2.20;;;1.13;;
35188;SDS011;21762;54.480;18.556;2023-08-06T00:02:59;5.22;;;1.38;;
35188;SDS011;21762;54.480;18.556;2023-08-06T00:05:29;4.70;;;1.73;;
35188;SDS011;21762;54.480;18.556;2023-08-06T00:07:58;5.57;;;1.45;;
35188;SDS011;21762;54.480;18.556;2023-08-06T00:10:26;2.35;;;1.20;;
35188;SDS011;21762;54.480;18.556;2023-08-06T00:12:55;3.45;;;1.65;;
35188;SDS011;21762;54.480;18.556;2023-08-06T00:15:23;6.75;;;1.58;;
35188;SDS011;21762;54.480;18.556;2023-08-06T00:17:52;4.60;;;1.45;;
35188;SDS011;21762;54.480;18.556;2023-08-06T00:20:21;4.35;;;1.40;;
35188;SDS011;21762;54.480;18.556;2023-08-06T00:22:50;6.97;;;1.92;;
35188;SDS011;21762;54.480;18.556;2023-08-06T00:25:19;2.42;;;1.58;;
35188;SDS011;21762;54.480;18.556;2023-08-06T00:27:47;2.50;;;1.42;;
35188;SDS011;21762;54.480;18.556;2023-08-06T00:30:16;4.07;;;1.55;;
35188;SDS011;21762;54.480;18.556;2023-08-06T00:32:45;7.65;;;1.58;;
35188;SDS011;21762;54.480;18.556;2023-08-06T00:35:14;2.95;;;1.77;;
35188;SDS011;21762;54.480;18.556;2023-08-06T00:37:43;4.40;;;1.58;;
35188;SDS011;21762;54.480;18.556;2023-08-06T00:40:13;5.65;;;1.60;;
35188;SDS011;21762;54.480;18.556;2023-08-06T00:42:41;6.32;;;2.17;;
35188;SDS011;21762;54.480;18.556;2023-08-06T00:45:11;3.78;;;1.98;;
35188;SDS011;21762;54.480;18.556;2023-08-06T00:47:40;5.30;;;2.55;;
35188;SDS011;21762;54.480;18.556;2023-08-06T00:50:10;5.65;;;2.17;;
35188;SDS011;21762;54.480;18.556;2023-08-06T00:52:39;5.15;;;1.83;;
35188;SDS011;21762;54.480;18.556;2023-08-06T00:55:08;5.60;;;2.22;;
35188;SDS011;21762;54.480;18.556;2023-08-06T00:57:39;7.68;;;2.35;;
35188;SDS011;21762;54.480;18.556;2023-08-06T01:00:08;7.68;;;2.42;;
35188;SDS011;21762;54.480;18.556;2023-08-06T01:02:37;2.95;;;1.58;;
35188;SDS011;21762;54.480;18.556;2023-08-06T01:05:06;3.00;;;1.60;;
35188;SDS011;21762;54.480;18.556;2023-08-06T01:07:37;5.30;;;1.98;;
35188;SDS011;21762;54.480;18.556;2023-08-06T01:10:19;4.00;;;1.63;;
35188;SDS011;21762;54.480;18.556;2023-08-06T01:12:56;6.18;;;1.45;;
35188;SDS011;21762;54.480;18.556;2023-08-06T01:15:32;4.38;;;1.70;;
35188;SDS011;21762;54.480;18.556;2023-08-06T01:18:03;3.22;;;1.77;;
35188;SDS011;21762;54.480;18.556;2023-08-06T01:20:33;11.23;;;2.15;;
35188;SDS011;21762;54.480;18.556;2023-08-06T01:23:01;5.88;;;1.85;;
35188;SDS011;21762;54.480;18.556;2023-08-06T01:25:32;7.70;;;2.50;;
35188;SDS011;21762;54.480;18.556;2023-08-06T01:28:03;6.05;;;2.78;;
35188;SDS011;21762;54.480;18.556;2023-08-06T01:30:35;6.30;;;2.40;;
35188;SDS011;21762;54.480;18.556;2023-08-06T01:33:07;5.55;;;2.08;;
35188;SDS011;21762;54.480;18.556;2023-08-06T01:35:40;4.63;;;2.50;;
35188;SDS011;21762;54.480;18.556;2023-08-06T01:38:08;3.65;;;2.25;;
35188;SDS011;21762;54.480;18.556;2023-08-06T01:40:37;6.13;;;2.65;;
35188;SDS011;21762;54.480;18.556;2023-08-06T01:43:06;6.78;;;2.30;;
35188;SDS011;21762;54.480;18.556;2023-08-06T01:45:34;7.47;;;2.50;;
35188;SDS011;21762;54.480;18.556;2023-08-06T01:48:03;5.40;;;2.33;;
35188;SDS011;21762;54.480;18.556;2023-08-06T01:50:32;2.90;;;2.15;;
35188;SDS011;21762;54.480;18.556;2023-08-06T01:53:01;8.88;;;2.22;;
35188;SDS011;21762;54.480;18.556;2023-08-06T01:55:30;4.90;;;2.67;;
35188;SDS011;21762;54.480;18.556;2023-08-06T01:57:59;4.32;;;2.20;;
35188;SDS011;21762;54.480;18.556;2023-08-06T02:00:27;8.15;;;2.63;;
35188;SDS011;21762;54.480;18.556;2023-08-06T02:02:56;4.95;;;2.47;;
35188;SDS011;21762;54.480;18.556;2023-08-06T02:05:24;11.27;;;3.20;;
35188;SDS011;21762;54.480;18.556;2023-08-06T02:07:52;6.35;;;2.67;;
35188;SDS011;21762;54.480;18.556;2023-08-06T02:10:22;6.70;;;2.97;;
35188;SDS011;21762;54.480;18.556;2023-08-06T02:12:51;7.38;;;2.80;;
35188;SDS011;21762;54.480;18.556;2023-08-06T02:15:19;8.40;;;2.72;;
35188;SDS011;21762;54.480;18.556;2023-08-06T02:17:48;9.65;;;2.80;;
35188;SDS011;21762;54.480;18.556;2023-08-06T02:20:16;5.45;;;2.75;;
35188;SDS011;21762;54.480;18.556;2023-08-06T02:22:45;5.18;;;2.60;;
35188;SDS011;21762;54.480;18.556;2023-08-06T02:25:13;3.42;;;2.42;;
35188;SDS011;21762;54.480;18.556;2023-08-06T02:27:44;6.57;;;2.30;;
35188;SDS011;21762;54.480;18.556;2023-08-06T02:30:12;7.72;;;2.97;;
35188;SDS011;21762;54.480;18.556;2023-08-06T02:32:41;8.40;;;2.50;;
35188;SDS011;21762;54.480;18.556;2023-08-06T02:35:09;4.93;;;2.30;;
35188;SDS011;21762;54.480;18.556;2023-08-06T02:37:38;5.18;;;2.50;;
35188;SDS011;21762;54.480;18.556;2023-08-06T02:40:07;4.85;;;2.35;;
35188;SDS011;21762;54.480;18.556;2023-08-06T02:42:36;7.63;;;2.83;;
35188;SDS011;21762;54.480;18.556;2023-08-06T02:45:06;6.93;;;2.80;;
35188;SDS011;21762;54.480;18.556;2023-08-06T02:47:36;4.80;;;2.70;;
35188;SDS011;21762;54.480;18.556;2023-08-06T02:50:05;7.43;;;2.75;;
35188;SDS011;21762;54.480;18.556;2023-08-06T02:52:34;7.32;;;2.90;;
35188;SDS011;21762;54.480;18.556;2023-08-06T02:55:06;5.00;;;2.25;;
35188;SDS011;21762;54.480;18.556;2023-08-06T02:57:39;5.05;;;3.30;;
35188;SDS011;21762;54.480;18.556;2023-08-06T03:00:10;7.68;;;3.90;;
35188;SDS011;21762;54.480;18.556;2023-08-06T03:02:40;8.13;;;3.25;;
35188;SDS011;21762;54.480;18.556;2023-08-06T03:05:22;5.85;;;3.15;;
35188;SDS011;21762;54.480;18.556;2023-08-06T03:07:51;7.05;;;4.43;;
35188;SDS011;21762;54.480;18.556;2023-08-06T03:10:24;8.13;;;3.30;;
35188;SDS011;21762;54.480;18.556;2023-08-06T03:12:55;8.05;;;4.00;;
35188;SDS011;21762;54.480;18.556;2023-08-06T03:15:25;11.75;;;3.25;;
35188;SDS011;21762;54.480;18.556;2023-08-06T03:17:55;7.30;;;3.45;;
35188;SDS011;21762;54.480;18.556;2023-08-06T03:20:24;10.17;;;2.50;;
35188;SDS011;21762;54.480;18.556;2023-08-06T03:22:53;7.68;;;2.90;;
35188;SDS011;21762;54.480;18.556;2023-08-06T03:25:21;8.10;;;3.45;;
35188;SDS011;21762;54.480;18.556;2023-08-06T03:27:50;8.57;;;3.55;;
35188;SDS011;21762;54.480;18.556;2023-08-06T03:30:19;6.43;;;3.38;;
35188;SDS011;21762;54.480;18.556;2023-08-06T03:32:51;8.82;;;3.45;;
35188;SDS011;21762;54.480;18.556;2023-08-06T03:35:21;7.53;;;3.83;;
35188;SDS011;21762;54.480;18.556;2023-08-06T03:37:50;15.85;;;4.72;;
35188;SDS011;21762;54.480;18.556;2023-08-06T03:40:18;10.00;;;4.07;;
35188;SDS011;21762;54.480;18.556;2023-08-06T03:42:46;7.90;;;4.13;;
35188;SDS011;21762;54.480;18.556;2023-08-06T03:45:15;9.13;;;3.90;;
35188;SDS011;21762;54.480;18.556;2023-08-06T03:47:44;10.65;;;4.32;;
35188;SDS011;21762;54.480;18.556;2023-08-06T03:50:14;13.05;;;3.95;;
35188;SDS011;21762;54.480;18.556;2023-08-06T03:52:43;10.57;;;4.07;;
35188;SDS011;21762;54.480;18.556;2023-08-06T03:55:11;13.63;;;4.47;;
35188;SDS011;21762;54.480;18.556;2023-08-06T03:57:40;13.45;;;5.38;;
35188;SDS011;21762;54.480;18.556;2023-08-06T04:00:09;13.77;;;4.05;;
35188;SDS011;21762;54.480;18.556;2023-08-06T04:02:40;10.70;;;3.90;;
35188;SDS011;21762;54.480;18.556;2023-08-06T04:05:12;7.45;;;3.85;;
35188;SDS011;21762;54.480;18.556;2023-08-06T04:07:42;10.15;;;4.22;;
35188;SDS011;21762;54.480;18.556;2023-08-06T04:10:10;14.40;;;4.10;;
35188;SDS011;21762;54.480;18.556;2023-08-06T04:12:39;10.63;;;3.85;;
35188;SDS011;21762;54.480;18.556;2023-08-06T04:15:07;9.73;;;3.92;;
35188;SDS011;21762;54.480;18.556;2023-08-06T04:17:36;12.23;;;4.32;;
35188;SDS011;21762;54.480;18.556;2023-08-06T04:20:05;11.63;;;3.75;;
35188;SDS011;21762;54.480;18.556;2023-08-06T04:22:34;12.15;;;4.55;;
35188;SDS011;21762;54.480;18.556;2023-08-06T04:25:05;8.40;;;4.15;;
35188;SDS011;21762;54.480;18.556;2023-08-06T04:27:34;13.10;;;4.20;;
35188;SDS011;21762;54.480;18.556;2023-08-06T04:30:04;12.02;;;3.60;;
35188;SDS011;21762;54.480;18.556;2023-08-06T04:32:36;12.02;;;4.28;;
35188;SDS011;21762;54.480;18.556;2023-08-06T04:35:05;9.50;;;3.65;;
35188;SDS011;21762;54.480;18.556;2023-08-06T04:37:36;12.10;;;4.43;;
35188;SDS011;21762;54.480;18.556;2023-08-06T04:40:07;9.98;;;3.78;;
35188;SDS011;21762;54.480;18.556;2023-08-06T04:42:36;11.73;;;3.83;;
35188;SDS011;21762;54.480;18.556;2023-08-06T04:45:05;8.85;;;3.60;;
35188;SDS011;21762;54.480;18.556;2023-08-06T04:47:34;11.38;;;3.90;;
35188;SDS011;21762;54.480;18.556;2023-08-06T04:50:03;11.15;;;4.00;;
35188;SDS011;21762;54.480;18.556;2023-08-06T04:52:32;12.27;;;3.47;;
35188;SDS011;21762;54.480;18.556;2023-08-06T04:55:00;11.95;;;4.03;;
35188;SDS011;21762;54.480;18.556;2023-08-06T04:57:30;9.27;;;3.58;;
35188;SDS011;21762;54.480;18.556;2023-08-06T04:59:59;13.60;;;4.13;;
35188;SDS011;21762;54.480;18.556;2023-08-06T05:02:27;8.60;;;3.70;;
35188;SDS011;21762;54.480;18.556;2023-08-06T05:04:56;9.85;;;3.65;;
35188;SDS011;21762;54.480;18.556;2023-08-06T05:07:24;8.98;;;3.67;;
35188;SDS011;21762;54.480;18.556;2023-08-06T05:09:53;15.77;;;4.00;;
35188;SDS011;21762;54.480;18.556;2023-08-06T05:12:21;9.43;;;3.42;;
35188;SDS011;21762;54.480;18.556;2023-08-06T05:14:51;11.82;;;4.65;;
35188;SDS011;21762;54.480;18.556;2023-08-06T05:17:20;10.82;;;3.85;;
35188;SDS011;21762;54.480;18.556;2023-08-06T05:19:50;14.77;;;4.03;;
35188;SDS011;21762;54.480;18.556;2023-08-06T05:22:18;10.00;;;3.95;;
35188;SDS011;21762;54.480;18.556;2023-08-06T05:24:47;12.55;;;4.28;;
35188;SDS011;21762;54.480;18.556;2023-08-06T05:27:15;9.85;;;4.07;;
35188;SDS011;21762;54.480;18.556;2023-08-06T05:29:45;19.23;;;4.75;;
35188;SDS011;21762;54.480;18.556;2023-08-06T05:32:15;17.10;;;4.20;;
35188;SDS011;21762;54.480;18.556;2023-08-06T05:34:44;15.50;;;4.07;;
35188;SDS011;21762;54.480;18.556;2023-08-06T05:37:12;14.00;;;3.90;;
35188;SDS011;21762;54.480;18.556;2023-08-06T05:39:41;10.57;;;3.97;;
35188;SDS011;21762;54.480;18.556;2023-08-06T05:42:09;14.02;;;4.13;;
35188;SDS011;21762;54.480;18.556;2023-08-06T05:44:38;10.52;;;3.83;;
35188;SDS011;21762;54.480;18.556;2023-08-06T05:47:06;10.32;;;4.13;;
35188;SDS011;21762;54.480;18.556;2023-08-06T05:49:36;11.60;;;4.68;;
35188;SDS011;21762;54.480;18.556;2023-08-06T05:52:05;8.98;;;3.90;;
35188;SDS011;21762;54.480;18.556;2023-08-06T05:54:35;16.48;;;4.30;;
35188;SDS011;21762;54.480;18.556;2023-08-06T05:57:04;9.27;;;4.20;;
35188;SDS011;21762;54.480;18.556;2023-08-06T05:59:33;9.02;;;4.40;;
35188;SDS011;21762;54.480;18.556;2023-08-06T06:02:01;11.98;;;4.28;;
35188;SDS011;21762;54.480;18.556;2023-08-06T06:04:30;10.57;;;4.63;;
35188;SDS011;21762;54.480;18.556;2023-08-06T06:07:00;13.35;;;4.40;;
35188;SDS011;21762;54.480;18.556;2023-08-06T06:09:29;7.88;;;4.05;;
35188;SDS011;21762;54.480;18.556;2023-08-06T06:11:57;9.65;;;4.60;;
35188;SDS011;21762;54.480;18.556;2023-08-06T06:14:26;6.43;;;3.50;;
35188;SDS011;21762;54.480;18.556;2023-08-06T06:16:54;12.18;;;4.85;;
35188;SDS011;21762;54.480;18.556;2023-08-06T06:19:23;9.77;;;4.35;;
35188;SDS011;21762;54.480;18.556;2023-08-06T06:21:52;10.35;;;5.35;;
35188;SDS011;21762;54.480;18.556;2023-08-06T06:24:25;9.48;;;4.35;;
35188;SDS011;21762;54.480;18.556;2023-08-06T06:26:54;10.65;;;4.18;;
35188;SDS011;21762;54.480;18.556;2023-08-06T06:29:22;23.40;;;5.18;;
35188;SDS011;21762;54.480;18.556;2023-08-06T06:31:51;15.18;;;4.45;;
35188;SDS011;21762;54.480;18.556;2023-08-06T06:34:19;10.07;;;3.90;;
35188;SDS011;21762;54.480;18.556;2023-08-06T06:36:48;10.40;;;3.78;;
35188;SDS011;21762;54.480;18.556;2023-08-06T06:39:17;17.35;;;4.10;;
35188;SDS011;21762;54.480;18.556;2023-08-06T06:41:47;13.57;;;4.13;;
35188;SDS011;21762;54.480;18.556;2023-08-06T06:44:24;8.52;;;4.25;;
35188;SDS011;21762;54.480;18.556;2023-08-06T06:46:53;18.58;;;4.75;;
35188;SDS011;21762;54.480;18.556;2023-08-06T06:49:22;12.20;;;4.05;;
35188;SDS011;21762;54.480;18.556;2023-08-06T06:51:50;17.27;;;5.00;;
35188;SDS011;21762;54.480;18.556;2023-08-06T06:54:19;9.65;;;4.57;;
35188;SDS011;21762;54.480;18.556;2023-08-06T06:56:49;15.57;;;4.60;;
35188;SDS011;21762;54.480;18.556;2023-08-06T06:59:17;13.60;;;4.88;;
35188;SDS011;21762;54.480;18.556;2023-08-06T07:01:46;12.52;;;4.57;;
35188;SDS011;21762;54.480;18.556;2023-08-06T07:04:14;12.10;;;4.32;;
35188;SDS011;21762;54.480;18.556;2023-08-06T07:06:43;11.15;;;4.38;;
35188;SDS011;21762;54.480;18.556;2023-08-06T07:09:11;8.65;;;3.33;;
35188;SDS011;21762;54.480;18.556;2023-08-06T07:11:40;21.13;;;4.65;;
35188;SDS011;21762;54.480;18.556;2023-08-06T07:14:12;15.32;;;4.13;;
35188;SDS011;21762;54.480;18.556;2023-08-06T07:16:41;14.55;;;4.40;;
35188;SDS011;21762;54.480;18.556;2023-08-06T07:19:09;16.23;;;4.28;;
35188;SDS011;21762;54.480;18.556;2023-08-06T07:21:38;8.52;;;3.40;;
35188;SDS011;21762;54.480;18.556;2023-08-06T07:24:07;11.93;;;4.13;;
35188;SDS011;21762;54.480;18.556;2023-08-06T07:26:35;7.38;;;3.13;;
35188;SDS011;21762;54.480;18.556;2023-08-06T07:29:04;10.40;;;2.88;;
35188;SDS011;21762;54.480;18.556;2023-08-06T07:31:34;8.13;;;3.00;;
35188;SDS011;21762;54.480;18.556;2023-08-06T07:34:03;8.80;;;2.60;;
35188;SDS011;21762;54.480;18.556;2023-08-06T07:36:32;8.00;;;3.13;;
35188;SDS011;21762;54.480;18.556;2023-08-06T07:39:01;7.20;;;2.53;;
35188;SDS011;21762;54.480;18.556;2023-08-06T07:41:31;8.40;;;2.72;;
35188;SDS011;21762;54.480;18.556;2023-08-06T07:43:59;12.23;;;3.13;;
35188;SDS011;21762;54.480;18.556;2023-08-06T07:46:28;16.25;;;3.70;;
35188;SDS011;21762;54.480;18.556;2023-08-06T07:48:58;8.30;;;2.75;;
35188;SDS011;21762;54.480;18.556;2023-08-06T07:51:27;11.65;;;3.65;;
35188;SDS011;21762;54.480;18.556;2023-08-06T07:53:55;12.93;;;3.05;;
35188;SDS011;21762;54.480;18.556;2023-08-06T07:56:24;18.95;;;3.58;;
35188;SDS011;21762;54.480;18.556;2023-08-06T07:58:53;10.25;;;3.50;;
35188;SDS011;21762;54.480;18.556;2023-08-06T08:01:21;10.43;;;3.08;;
35188;SDS011;21762;54.480;18.556;2023-08-06T08:03:50;15.88;;;3.38;;
35188;SDS011;21762;54.480;18.556;2023-08-06T08:06:20;11.52;;;3.33;;
35188;SDS011;21762;54.480;18.556;2023-08-06T08:08:49;12.40;;;3.00;;
35188;SDS011;21762;54.480;18.556;2023-08-06T08:11:20;10.55;;;3.47;;
35188;SDS011;21762;54.480;18.556;2023-08-06T08:13:49;13.73;;;3.55;;
35188;SDS011;21762;54.480;18.556;2023-08-06T08:16:17;12.82;;;3.60;;
35188;SDS011;21762;54.480;18.556;2023-08-06T08:18:46;15.00;;;3.20;;
35188;SDS011;21762;54.480;18.556;2023-08-06T08:21:14;12.55;;;4.20;;
35188;SDS011;21762;54.480;18.556;2023-08-06T08:23:44;14.23;;;4.07;;
35188;SDS011;21762;54.480;18.556;2023-08-06T08:26:13;16.67;;;3.13;;
35188;SDS011;21762;54.480;18.556;2023-08-06T08:28:42;12.48;;;3.83;;
35188;SDS011;21762;54.480;18.556;2023-08-06T08:31:10;16.95;;;3.00;;
35188;SDS011;21762;54.480;18.556;2023-08-06T08:33:39;11.00;;;3.50;;
35188;SDS011;21762;54.480;18.556;2023-08-06T08:36:08;12.32;;;3.47;;
35188;SDS011;21762;54.480;18.556;2023-08-06T08:38:37;10.43;;;4.05;;
35188;SDS011;21762;54.480;18.556;2023-08-06T08:41:09;9.73;;;3.17;;
35188;SDS011;21762;54.480;18.556;2023-08-06T08:43:38;9.07;;;3.33;;
35188;SDS011;21762;54.480;18.556;2023-08-06T08:46:09;13.52;;;3.72;;
35188;SDS011;21762;54.480;18.556;2023-08-06T08:48:38;8.52;;;2.95;;
35188;SDS011;21762;54.480;18.556;2023-08-06T08:51:06;7.75;;;3.13;;
35188;SDS011;21762;54.480;18.556;2023-08-06T08:53:36;11.63;;;4.15;;
35188;SDS011;21762;54.480;18.556;2023-08-06T08:56:07;11.43;;;3.53;;
35188;SDS011;21762;54.480;18.556;2023-08-06T08:58:36;17.90;;;4.10;;
35188;SDS011;21762;54.480;18.556;2023-08-06T09:01:05;15.02;;;4.22;;
35188;SDS011;21762;54.480;18.556;2023-08-06T09:03:35;21.80;;;4.60;;
35188;SDS011;21762;54.480;18.556;2023-08-06T09:06:04;13.48;;;4.32;;
35188;SDS011;21762;54.480;18.556;2023-08-06T09:08:34;15.13;;;4.82;;
35188;SDS011;21762;54.480;18.556;2023-08-06T09:11:05;13.55;;;4.90;;
35188;SDS011;21762;54.480;18.556;2023-08-06T09:13:39;12.05;;;4.57;;
35188;SDS011;21762;54.480;18.556;2023-08-06T09:16:07;9.02;;;4.68;;
35188;SDS011;21762;54.480;18.556;2023-08-06T09:18:36;15.93;;;5.15;;
35188;SDS011;21762;54.480;18.556;2023-08-06T09:21:08;16.77;;;6.15;;
35188;SDS011;21762;54.480;18.556;2023-08-06T09:23:42;10.35;;;4.78;;
35188;SDS011;21762;54.480;18.556;2023-08-06T09:26:13;9.68;;;4.68;;
35188;SDS011;21762;54.480;18.556;2023-08-06T09:28:42;23.27;;;6.18;;
35188;SDS011;21762;54.480;18.556;2023-08-06T09:31:11;16.27;;;5.43;;
35188;SDS011;21762;54.480;18.556;2023-08-06T09:33:39;13.43;;;5.25;;
35188;SDS011;21762;54.480;18.556;2023-08-06T09:36:08;18.67;;;6.93;;
35188;SDS011;21762;54.480;18.556;2023-08-06T09:38:38;20.52;;;6.88;;
35188;SDS011;21762;54.480;18.556;2023-08-06T09:41:08;14.50;;;5.93;;
35188;SDS011;21762;54.480;18.556;2023-08-06T09:43:42;19.17;;;7.15;;
35188;SDS011;21762;54.480;18.556;2023-08-06T09:46:11;21.00;;;5.78;;
35188;SDS011;21762;54.480;18.556;2023-08-06T09:48:46;16.33;;;6.25;;
35188;SDS011;21762;54.480;18.556;2023-08-06T09:51:16;11.85;;;5.60;;
35188;SDS011;21762;54.480;18.556;2023-08-06T09:53:45;15.80;;;6.88;;
35188;SDS011;21762;54.480;18.556;2023-08-06T09:56:15;16.88;;;5.30;;
35188;SDS011;21762;54.480;18.556;2023-08-06T09:58:47;12.20;;;5.50;;
35188;SDS011;21762;54.480;18.556;2023-08-06T10:01:17;10.27;;;5.65;;
35188;SDS011;21762;54.480;18.556;2023-08-06T10:03:47;9.60;;;4.93;;
35188;SDS011;21762;54.480;18.556;2023-08-06T10:06:18;13.10;;;5.63;;
35188;SDS011;21762;54.480;18.556;2023-08-06T10:08:48;16.52;;;5.57;;
35188;SDS011;21762;54.480;18.556;2023-08-06T10:11:17;18.27;;;6.28;;
35188;SDS011;21762;54.480;18.556;2023-08-06T10:13:47;17.80;;;6.03;;
35188;SDS011;21762;54.480;18.556;2023-08-06T10:16:17;9.00;;;4.60;;
35188;SDS011;21762;54.480;18.556;2023-08-06T10:18:47;13.65;;;5.43;;
35188;SDS011;21762;54.480;18.556;2023-08-06T10:21:16;26.33;;;6.95;;
35188;SDS011;21762;54.480;18.556;2023-08-06T10:23:48;11.88;;;6.30;;
35188;SDS011;21762;54.480;18.556;2023-08-06T10:26:24;16.20;;;6.22;;
35188;SDS011;21762;54.480;18.556;2023-08-06T10:34:23;14.25;;;6.22;;
35188;SDS011;21762;54.480;18.556;2023-08-06T10:36:54;14.02;;;6.25;;
35188;SDS011;21762;54.480;18.556;2023-08-06T10:39:22;15.93;;;6.50;;
35188;SDS011;21762;54.480;18.556;2023-08-06T10:41:55;9.93;;;5.93;;
35188;SDS011;21762;54.480;18.556;2023-08-06T10:44:27;14.57;;;6.70;;
35188;SDS011;21762;54.480;18.556;2023-08-06T10:46:58;13.13;;;6.05;;
35188;SDS011;21762;54.480;18.556;2023-08-06T10:49:56;18.23;;;6.40;;
35188;SDS011;21762;54.480;18.556;2023-08-06T10:52:25;10.88;;;5.95;;
35188;SDS011;21762;54.480;18.556;2023-08-06T10:54:54;18.58;;;6.78;;
35188;SDS011;21762;54.480;18.556;2023-08-06T10:57:23;14.73;;;6.68;;
35188;SDS011;21762;54.480;18.556;2023-08-06T10:59:53;16.58;;;7.35;;
35188;SDS011;21762;54.480;18.556;2023-08-06T11:02:33;12.90;;;6.57;;
35188;SDS011;21762;54.480;18.556;2023-08-06T11:05:06;12.32;;;6.80;;
35188;SDS011;21762;54.480;18.556;2023-08-06T11:07:36;21.02;;;8.43;;
35188;SDS011;21762;54.480;18.556;2023-08-06T11:10:06;14.48;;;6.43;;
35188;SDS011;21762;54.480;18.556;2023-08-06T11:12:35;10.45;;;6.68;;
35188;SDS011;21762;54.480;18.556;2023-08-06T11:15:06;9.68;;;5.90;;
35188;SDS011;21762;54.480;18.556;2023-08-06T11:17:36;8.23;;;6.25;;
35188;SDS011;21762;54.480;18.556;2023-08-06T11:20:05;8.70;;;6.05;;
35188;SDS011;21762;54.480;18.556;2023-08-06T11:22:35;10.95;;;6.03;;
35188;SDS011;21762;54.480;18.556;2023-08-06T11:25:05;8.85;;;6.72;;
35188;SDS011;21762;54.480;18.556;2023-08-06T11:27:34;8.98;;;6.45;;
35188;SDS011;21762;54.480;18.556;2023-08-06T11:30:03;9.82;;;5.97;;
35188;SDS011;21762;54.480;18.556;2023-08-06T11:32:44;9.10;;;6.93;;
35188;SDS011;21762;54.480;18.556;2023-08-06T11:35:14;12.38;;;6.80;;
35188;SDS011;21762;54.480;18.556;2023-08-06T11:37:43;8.85;;;5.85;;
35188;SDS011;21762;54.480;18.556;2023-08-06T11:40:14;11.02;;;6.90;;
35188;SDS011;21762;54.480;18.556;2023-08-06T11:42:43;9.93;;;7.53;;
35188;SDS011;21762;54.480;18.556;2023-08-06T11:45:15;12.68;;;6.97;;
35188;SDS011;21762;54.480;18.556;2023-08-06T11:47:49;10.27;;;7.35;;
35188;SDS011;21762;54.480;18.556;2023-08-06T11:50:22;8.75;;;6.63;;
35188;SDS011;21762;54.480;18.556;2023-08-06T11:52:52;13.65;;;8.57;;
35188;SDS011;21762;54.480;18.556;2023-08-06T11:57:52;15.23;;;10.85;;
35188;SDS011;21762;54.480;18.556;2023-08-06T12:00:24;13.25;;;8.90;;
35188;SDS011;21762;54.480;18.556;2023-08-06T12:02:53;17.52;;;9.73;;
35188;SDS011;21762;54.480;18.556;2023-08-06T12:05:23;19.00;;;9.77;;
35188;SDS011;21762;54.480;18.556;2023-08-06T12:07:52;14.27;;;9.30;;
35188;SDS011;21762;54.480;18.556;2023-08-06T12:10:24;16.45;;;10.23;;
35188;SDS011;21762;54.480;18.556;2023-08-06T12:12:53;11.85;;;9.57;;
35188;SDS011;21762;54.480;18.556;2023-08-06T12:15:24;12.10;;;9.75;;
35188;SDS011;21762;54.480;18.556;2023-08-06T12:17:52;15.82;;;10.00;;
35188;SDS011;21762;54.480;18.556;2023-08-06T12:20:21;12.60;;;9.60;;
35188;SDS011;21762;54.480;18.556;2023-08-06T12:22:50;14.20;;;10.57;;
35188;SDS011;21762;54.480;18.556;2023-08-06T12:25:20;13.23;;;9.85;;
35188;SDS011;21762;54.480;18.556;2023-08-06T12:27:50;14.23;;;9.93;;
35188;SDS011;21762;54.480;18.556;2023-08-06T12:30:19;11.07;;;9.70;;
35188;SDS011;21762;54.480;18.556;2023-08-06T12:32:49;14.18;;;10.05;;
35188;SDS011;21762;54.480;18.556;2023-08-06T12:35:19;13.60;;;9.27;;
35188;SDS011;21762;54.480;18.556;2023-08-06T12:37:47;14.40;;;10.13;;
35188;SDS011;21762;54.480;18.556;2023-08-06T12:40:18;12.35;;;9.48;;
35188;SDS011;21762;54.480;18.556;2023-08-06T12:42:54;13.43;;;9.68;;
35188;SDS011;21762;54.480;18.556;2023-08-06T12:45:23;12.10;;;8.85;;
35188;SDS011;21762;54.480;18.556;2023-08-06T12:47:53;13.25;;;10.43;;
35188;SDS011;21762;54.480;18.556;2023-08-06T12:50:23;13.95;;;8.68;;
35188;SDS011;21762;54.480;18.556;2023-08-06T12:52:52;12.75;;;10.02;;
35188;SDS011;21762;54.480;18.556;2023-08-06T12:55:21;11.82;;;9.95;;
35188;SDS011;21762;54.480;18.556;2023-08-06T12:57:50;10.75;;;9.32;;
35188;SDS011;21762;54.480;18.556;2023-08-06T13:00:23;12.13;;;9.27;;
35188;SDS011;21762;54.480;18.556;2023-08-06T13:02:53;13.35;;;10.32;;
35188;SDS011;21762;54.480;18.556;2023-08-06T13:05:23;14.32;;;10.18;;
35188;SDS011;21762;54.480;18.556;2023-08-06T13:07:51;12.93;;;9.65;;
35188;SDS011;21762;54.480;18.556;2023-08-06T13:10:20;11.82;;;9.07;;
35188;SDS011;21762;54.480;18.556;2023-08-06T13:12:51;13.07;;;9.65;;
35188;SDS011;21762;54.480;18.556;2023-08-06T13:15:20;13.30;;;9.60;;
35188;SDS011;21762;54.480;18.556;2023-08-06T13:17:49;12.07;;;10.32;;
35188;SDS011;21762;54.480;18.556;2023-08-06T13:20:20;11.63;;;9.63;;
35188;SDS011;21762;54.480;18.556;2023-08-06T13:22:49;15.73;;;10.07;;
35188;SDS011;21762;54.480;18.556;2023-08-06T13:25:20;11.63;;;10.23;;
35188;SDS011;21762;54.480;18.556;2023-08-06T13:27:50;10.30;;;9.18;;
35188;SDS011;21762;54.480;18.556;2023-08-06T13:30:19;12.75;;;10.65;;
35188;SDS011;21762;54.480;18.556;2023-08-06T13:32:50;16.25;;;11.02;;
35188;SDS011;21762;54.480;18.556;2023-08-06T13:35:20;14.15;;;10.35;;
35188;SDS011;21762;54.480;18.556;2023-08-06T13:37:49;17.58;;;9.70;;
35188;SDS011;21762;54.480;18.556;2023-08-06T13:40:18;18.80;;;10.35;;
35188;SDS011;21762;54.480;18.556;2023-08-06T13:42:47;12.48;;;10.55;;
35188;SDS011;21762;54.480;18.556;2023-08-06T13:45:16;12.02;;;9.43;;
35188;SDS011;21762;54.480;18.556;2023-08-06T13:47:44;14.02;;;10.40;;
35188;SDS011;21762;54.480;18.556;2023-08-06T13:50:13;13.25;;;10.20;;
35188;SDS011;21762;54.480;18.556;2023-08-06T13:52:44;16.02;;;10.77;;
35188;SDS011;21762;54.480;18.556;2023-08-06T13:55:13;13.57;;;9.95;;
35188;SDS011;21762;54.480;18.556;2023-08-06T13:57:43;13.38;;;10.40;;
35188;SDS011;21762;54.480;18.556;2023-08-06T14:00:12;11.43;;;10.13;;
35188;SDS011;21762;54.480;18.556;2023-08-06T14:02:41;15.10;;;9.82;;
35188;SDS011;21762;54.480;18.556;2023-08-06T14:05:12;14.82;;;10.25;;
35188;SDS011;21762;54.480;18.556;2023-08-06T14:07:41;16.08;;;9.98;;
35188;SDS011;21762;54.480;18.556;2023-08-06T14:10:11;11.38;;;9.45;;
35188;SDS011;21762;54.480;18.556;2023-08-06T14:12:40;12.38;;;9.95;;
35188;SDS011;21762;54.480;18.556;2023-08-06T14:15:10;11.73;;;9.93;;
35188;SDS011;21762;54.480;18.556;2023-08-06T14:17:38;12.18;;;9.88;;
35188;SDS011;21762;54.480;18.556;2023-08-06T14:20:08;12.27;;;10.13;;
35188;SDS011;21762;54.480;18.556;2023-08-06T14:22:38;14.32;;;9.68;;
35188;SDS011;21762;54.480;18.556;2023-08-06T14:25:07;11.43;;;8.88;;
35188;SDS011;21762;54.480;18.556;2023-08-06T14:27:38;15.10;;;9.85;;
35188;SDS011;21762;54.480;18.556;2023-08-06T14:30:08;11.13;;;9.00;;
35188;SDS011;21762;54.480;18.556;2023-08-06T14:32:37;10.45;;;9.02;;
35188;SDS011;21762;54.480;18.556;2023-08-06T14:35:07;13.00;;;9.52;;
35188;SDS011;21762;54.480;18.556;2023-08-06T14:37:36;13.68;;;10.52;;
35188;SDS011;21762;54.480;18.556;2023-08-06T14:40:06;12.02;;;10.40;;
35188;SDS011;21762;54.480;18.556;2023-08-06T14:42:37;14.02;;;10.77;;
35188;SDS011;21762;54.480;18.556;2023-08-06T14:45:06;16.10;;;11.65;;
35188;SDS011;21762;54.480;18.556;2023-08-06T14:47:35;12.80;;;10.25;;